Time;durP1;ratioP1;P1;durP2;ratioP2;P2;SDS_P1;SDS_P2;PMS_P1;PMS_P2;Temp;Humidity;BMP_temperature;BMP_pressure;BME280_temperature;BME280_humidity;BME280_pressure;Samples;Min_cycle;Max_cycle;Signal;HPM_P1;HPM_P2
2022/01/30 00:00:15;;;;;;;14.93;4.23;;;9.00;1.00;9.10;101230.00;;;;5060883;28;20475;-81
2022/01/30 00:02:44;;;;;;;14.57;4.27;;;8.90;1.00;9.20;101234.00;;;;5056212;28;20472;-81
2022/01/30 00:05:12;;;;;;;11.97;3.70;;;8.90;1.00;9.20;68295.00;;;;5065601;28;20474;-80
2022/01/30 00:07:43;;;;;;;14.23;4.10;;;9.10;1.00;9.20;101219.00;;;;5068663;28;20468;-82
2022/01/30 00:10:18;;;;;;;14.97;4.07;;;9.00;1.00;9.20;101231.00;;;;5070453;28;20494;-81
2022/01/30 00:12:51;;;;;;;16.27;4.17;;;9.00;1.00;9.30;101216.00;;;;5066373;28;21139;-82
2022/01/30 00:15:33;;;;;;;9.83;4.13;;;9.10;1.00;9.30;68320.00;;;;5053694;28;20444;-82
2022/01/30 00:18:12;;;;;;;14.57;4.83;;;9.10;1.00;9.30;101234.00;;;;5055116;28;20459;-81
2022/01/30 00:20:44;;;;;;;17.53;4.20;;;9.10;1.00;9.30;101243.00;;;;5052507;28;20856;-80
2022/01/30 00:23:17;;;;;;;16.50;5.20;;;9.20;1.00;9.30;68335.00;;;;5053652;28;20835;-80
2022/01/30 00:25:50;;;;;;;14.90;4.20;;;9.20;1.00;9.30;101212.00;;;;5053956;28;20447;-80
2022/01/30 00:28:21;;;;;;;11.27;3.77;;;9.20;1.00;9.30;101210.00;;;;5052605;28;21087;-80
2022/01/30 00:30:49;;;;;;;12.77;4.27;;;9.10;1.00;9.40;101222.00;;;;5052720;28;20444;-80
2022/01/30 00:33:18;;;;;;;15.67;4.87;;;9.10;1.00;9.40;101226.00;;;;5049689;28;20494;-80
2022/01/30 00:35:49;;;;;;;15.90;4.90;;;9.20;1.00;9.40;101239.00;;;;5069481;28;20436;-83
2022/01/30 00:38:21;;;;;;;15.20;4.50;;;9.20;1.00;9.30;101228.00;;;;5052737;28;20523;-80
2022/01/30 00:40:53;;;;;;;12.63;4.50;;;9.10;1.00;9.30;101232.00;;;;5054354;28;20551;-81
2022/01/30 00:43:22;;;;;;;12.90;5.00;;;9.10;1.00;9.30;101231.00;;;;5050572;28;20495;-83
2022/01/30 00:45:51;;;;;;;12.13;4.80;;;9.10;1.00;9.30;101230.00;;;;5049721;28;20452;-79
2022/01/30 00:48:20;;;;;;;11.80;3.97;;;9.10;1.00;52.70;160672.00;;;;5051162;28;20460;-82
2022/01/30 00:50:50;;;;;;;8.23;3.03;;;9.00;1.00;9.20;101244.00;;;;5051803;28;20448;-80
2022/01/30 00:53:18;;;;;;;7.53;2.83;;;9.00;1.00;9.20;68303.00;;;;5051834;28;20466;-81
2022/01/30 00:55:47;;;;;;;9.47;3.43;;;9.00;1.00;9.20;101229.00;;;;5054565;28;20447;-81
2022/01/30 00:58:17;;;;;;;7.20;2.90;;;9.00;1.00;9.30;101239.00;;;;5055035;28;20452;-82
2022/01/30 01:00:45;;;;;;;6.53;2.17;;;9.00;1.00;9.30;101234.00;;;;5057308;28;20448;-81
2022/01/30 01:03:14;;;;;;;13.03;3.70;;;9.10;1.00;9.30;101232.00;;;;5063223;28;20480;-83
2022/01/30 01:05:43;;;;;;;11.03;3.47;;;9.10;1.00;9.30;68330.00;;;;5064324;28;20466;-83
2022/01/30 01:08:16;;;;;;;14.87;3.40;;;9.10;1.00;9.40;101231.00;;;;5067862;28;20484;-81
2022/01/30 01:10:53;;;;;;;14.00;3.93;;;9.10;1.00;52.70;160700.00;;;;5066523;28;20541;-81
2022/01/30 01:13:55;;;;;;;9.33;3.50;;;9.10;1.00;9.30;68335.00;;;;5067049;28;20542;-80
2022/01/30 01:24:41;;;;;;;13.37;3.70;;;9.10;1.00;9.40;101212.00;;;;5053336;28;20579;-80
2022/01/30 01:27:09;;;;;;;15.43;3.80;;;9.10;1.00;9.30;68335.00;;;;5053618;28;20452;-81
2022/01/30 01:29:39;;;;;;;11.63;4.03;;;9.10;1.00;9.30;101248.00;;;;5056021;28;20480;-80
2022/01/30 01:32:09;;;;;;;11.67;3.23;;;9.10;1.00;9.30;68338.00;;;;5059963;28;20447;-80
2022/01/30 01:34:39;;;;;;;9.73;2.33;;;9.10;1.00;9.40;101245.00;;;;5073612;28;20470;-81
2022/01/30 01:37:10;;;;;;;11.90;4.03;;;9.10;1.00;9.40;101235.00;;;;5055572;28;20467;-80
2022/01/30 01:39:44;;;;;;;10.57;3.60;;;9.30;1.00;9.40;101246.00;;;;5062477;28;20464;-80
2022/01/30 01:42:14;;;;;;;9.23;3.80;;;9.10;1.00;9.40;101232.00;;;;5068164;28;20452;-81
2022/01/30 01:44:48;;;;;;;8.40;3.30;;;9.20;1.00;52.70;160712.00;;;;5065266;28;21016;-80
2022/01/30 01:47:20;;;;;;;11.63;3.70;;;9.10;1.00;9.30;68318.00;;;;5063961;28;20478;-80
2022/01/30 01:49:50;;;;;;;7.80;2.50;;;9.10;1.00;9.30;68320.00;;;;5079714;28;20561;-79
2022/01/30 01:52:21;;;;;;;11.13;4.07;;;9.00;1.00;9.30;68318.00;;;;5064018;28;20450;-80
2022/01/30 01:54:53;;;;;;;12.40;4.23;;;9.00;1.00;9.20;101253.00;;;;5064315;28;20833;-82
2022/01/30 01:57:23;;;;;;;7.80;3.50;;;9.00;1.00;9.30;68320.00;;;;5058010;28;20520;-81
2022/01/30 02:00:12;;;;;;;11.90;2.80;;;9.00;1.00;9.30;101262.00;;;;5074184;28;20901;-80
2022/01/30 02:02:40;;;;;;;9.20;2.57;;;9.00;1.00;9.40;68340.00;;;;5060525;28;20482;-81
2022/01/30 02:05:10;;;;;;;12.20;3.00;;;9.10;1.00;9.40;68344.00;;;;5060326;28;20452;-79
2022/01/30 02:08:09;;;;;;;9.37;3.00;;;9.10;1.00;9.40;68351.00;;;;5056748;28;20498;-80
2022/01/30 02:10:48;;;;;;;18.53;3.50;;;9.10;1.00;9.40;101256.00;;;;5061261;28;20551;-81
2022/01/30 02:25:17;;;;;;;8.50;2.80;;;9.20;1.00;9.30;68332.00;;;;5067106;28;20460;-79
2022/01/30 02:27:46;;;;;;;7.83;2.73;;;9.00;1.00;9.30;101153.00;;;;5066305;28;20456;-81
2022/01/30 02:30:19;;;;;;;10.03;3.47;;;9.00;1.00;217.30;160694.00;;;;5065907;28;20480;-80
2022/01/30 02:32:50;;;;;;;10.43;3.30;;;9.00;1.00;9.30;68320.00;;;;5079875;28;20529;-81
2022/01/30 02:35:19;;;;;;;9.10;2.27;;;8.90;1.00;9.30;68317.00;;;;5076516;28;20450;-81
2022/01/30 02:37:51;;;;;;;8.63;2.13;;;8.90;1.00;9.20;68308.00;;;;5074520;28;20456;-80
2022/01/30 02:40:21;;;;;;;7.10;3.03;;;8.90;1.00;9.20;101266.00;;;;5059802;28;20478;-80
2022/01/30 02:42:52;;;;;;;10.17;2.53;;;8.90;1.00;9.30;68317.00;;;;5062584;28;22481;-81
2022/01/30 02:45:25;;;;;;;9.83;3.00;;;8.90;1.00;9.30;68318.00;;;;5065738;28;20488;-80
2022/01/30 02:47:58;;;;;;;9.37;2.40;;;8.90;1.00;9.20;101241.00;;;;5068528;28;20456;-82
2022/01/30 02:50:36;;;;;;;8.50;2.33;;;8.90;1.00;9.20;68293.00;;;;5078696;28;20503;-80
2022/01/30 02:53:09;;;;;;;13.80;3.40;;;8.90;1.00;9.20;101268.00;;;;5059963;28;20524;-81
2022/01/30 02:55:40;;;;;;;10.87;2.97;;;9.00;1.00;9.20;68305.00;;;;5059224;28;20486;-80
2022/01/30 02:58:08;;;;;;;10.20;2.97;;;8.80;1.00;9.20;68311.00;;;;5059572;28;21040;-80
2022/01/30 03:00:38;;;;;;;9.03;3.00;;;8.90;1.00;9.30;68308.00;;;;5059122;28;20486;-81
2022/01/30 03:03:06;;;;;;;8.27;3.20;;;8.90;1.00;9.10;101308.00;;;;5062403;28;20484;-82
2022/01/30 03:05:35;;;;;;;12.47;2.80;;;8.80;1.00;9.20;101302.00;;;;5059552;28;20466;-81
2022/01/30 03:08:04;;;;;;;18.17;5.03;;;8.80;1.00;9.10;101321.00;;;;5056953;28;20483;-80
2022/01/30 03:10:32;;;;;;;12.40;2.90;;;8.60;1.00;9.10;68279.00;;;;5057884;28;20559;-81
2022/01/30 03:13:02;;;;;;;9.83;3.40;;;8.70;1.00;9.10;68279.00;;;;5061360;28;20466;-81
2022/01/30 03:15:30;;;;;;;11.00;3.27;;;8.70;1.00;9.10;101315.00;;;;5059485;28;20471;-80
2022/01/30 03:17:58;;;;;;;15.07;4.30;;;8.70;1.00;9.10;101329.00;;;;5060419;28;20447;-80
2022/01/30 03:20:27;;;;;;;9.10;2.67;;;8.70;1.00;9.10;68275.00;;;;5076303;28;20475;-80
2022/01/30 03:22:56;;;;;;;8.30;2.53;;;8.70;1.00;9.10;101340.00;;;;5063718;28;20455;-80
2022/01/30 03:25:25;;;;;;;11.33;3.27;;;8.60;1.00;9.10;68279.00;;;;5064025;28;20463;-81
2022/01/30 03:28:16;;;;;;;11.47;3.83;;;8.70;1.00;9.00;101334.00;;;;5064862;28;20447;-81
2022/01/30 03:30:53;;;;;;;7.87;3.30;;;8.70;1.00;9.00;101344.00;;;;5066179;28;20467;-80
2022/01/30 03:33:37;;;;;;;9.93;3.47;;;8.60;1.00;8.80;101363.00;;;;5070160;28;20524;-80
2022/01/30 03:36:06;;;;;;;10.20;2.90;;;8.50;1.00;8.80;68207.00;;;;5070065;28;20864;-80
2022/01/30 03:38:35;;;;;;;11.37;3.10;;;8.40;1.00;8.80;101361.00;;;;5068669;28;20455;-80
2022/01/30 03:41:05;;;;;;;10.27;4.80;;;8.40;1.00;217.30;160440.00;;;;5062259;28;20487;-80
2022/01/30 03:43:36;;;;;;;16.73;4.40;;;8.30;1.00;8.80;101358.00;;;;5060507;28;20464;-81
2022/01/30 03:46:05;;;;;;;13.13;2.73;;;8.30;1.00;8.80;68209.00;;;;5065496;28;20462;-81
2022/01/30 03:48:34;;;;;;;9.13;2.73;;;8.40;1.00;217.30;160456.00;;;;5065499;28;20459;-81
2022/01/30 03:51:07;;;;;;;15.07;3.47;;;8.40;1.00;52.70;160430.00;;;;5065699;28;20452;-81
2022/01/30 03:53:36;;;;;;;14.23;4.60;;;8.30;1.00;8.80;68207.00;;;;5065645;28;20446;-81
2022/01/30 03:56:07;;;;;;;14.17;3.47;;;8.40;1.00;8.70;68199.00;;;;5065131;28;20455;-81
2022/01/30 03:58:37;;;;;;;13.87;3.50;;;8.30;1.00;8.70;68198.00;;;;5083057;28;20542;-81
2022/01/30 04:01:11;;;;;;;11.50;3.30;;;8.30;1.00;8.70;68193.00;;;;5065777;28;20489;-81
2022/01/30 04:03:40;;;;;;;10.13;3.70;;;8.30;1.00;8.70;68188.00;;;;5064311;28;20452;-81
2022/01/30 04:06:10;;;;;;;12.93;3.70;;;8.30;1.00;8.70;68176.00;;;;5083235;28;20440;-81
2022/01/30 04:08:40;;;;;;;7.93;2.33;;;8.30;1.00;8.60;68160.00;;;;5067672;28;20486;-81
2022/01/30 04:11:22;;;;;;;10.83;3.13;;;8.20;1.00;217.30;160373.00;;;;5064705;28;20462;-80
2022/01/30 04:14:11;;;;;;;13.60;3.50;;;8.20;1.00;8.50;68140.00;;;;5068475;28;20511;-80
2022/01/30 04:16:59;;;;;;;12.27;3.13;;;8.10;1.00;8.50;101386.00;;;;5071303;28;20455;-80
2022/01/30 04:19:46;;;;;;;13.63;3.17;;;8.10;1.00;8.40;68121.00;;;;5067533;28;20491;-80
2022/01/30 04:22:36;;;;;;;8.70;4.60;;;8.00;1.00;8.30;68107.00;;;;5070121;28;20478;-80
2022/01/30 04:25:19;;;;;;;12.63;3.13;;;7.90;1.00;8.30;101404.00;;;;5069285;28;20475;-80
2022/01/30 04:28:00;;;;;;;11.30;3.43;;;7.90;1.00;8.30;68094.00;;;;5066509;28;20432;-80
2022/01/30 04:31:00;;;;;;;15.57;3.57;;;7.80;1.00;8.30;101390.00;;;;5004862;28;20463;-79
2022/01/30 04:33:40;;;;;;;8.23;3.10;;;7.80;1.00;8.20;101388.00;;;;5073835;28;20572;-80
2022/01/30 04:36:30;;;;;;;10.00;3.57;;;7.70;1.00;8.20;101401.00;;;;5057015;28;20459;-79
2022/01/30 04:39:34;;;;;;;13.20;3.57;;;7.70;1.00;8.10;68048.00;;;;5061181;28;20487;-80
2022/01/30 04:52:00;;;;;;;18.63;3.80;;;7.70;1.00;8.00;68033.00;;;;5064882;28;20471;-81
2022/01/30 04:55:54;;;;;;;11.67;3.07;;;7.40;1.00;7.90;68002.00;;;;5005972;28;20474;-80
2022/01/30 04:58:28;;;;;;;13.17;4.50;;;7.40;1.00;7.90;68009.00;;;;5010574;28;20458;-81
2022/01/30 05:01:13;;;;;;;15.77;3.50;;;7.40;1.00;8.00;68031.00;;;;5069528;28;20470;-81
2022/01/30 05:04:23;;;;;;;9.27;2.97;;;7.50;1.00;8.00;68033.00;;;;5066073;28;20483;-81
2022/01/30 05:07:29;;;;;;;14.57;4.00;;;7.50;1.00;8.10;68048.00;;;;5062243;28;20452;-80
2022/01/30 05:09:57;;;;;;;12.33;3.23;;;7.60;1.00;8.10;68042.00;;;;5071207;28;20452;-80
2022/01/30 05:12:41;;;;;;;13.70;3.67;;;7.60;1.00;8.10;101402.00;;;;5070854;28;20459;-80
2022/01/30 05:15:30;;;;;;;9.50;3.53;;;7.60;1.00;8.10;68042.00;;;;5071319;28;20448;-80
2022/01/30 05:18:24;;;;;;;16.67;4.00;;;7.60;1.00;8.10;68052.00;;;;5070016;28;20460;-80
2022/01/30 05:21:12;;;;;;;10.97;4.03;;;7.70;1.00;8.10;68048.00;;;;5067813;28;20535;-80
2022/01/30 05:24:07;;;;;;;10.10;3.03;;;7.50;1.00;8.10;68052.00;;;;5065444;28;20585;-80
2022/01/30 05:26:59;;;;;;;15.40;3.47;;;7.70;1.00;8.10;68042.00;;;;5058152;28;20515;-79
2022/01/30 05:29:54;;;;;;;15.77;4.80;;;7.70;1.00;8.10;68052.00;;;;5045295;28;20494;-80
2022/01/30 05:32:59;;;;;;;9.60;2.97;;;7.70;1.00;217.30;160182.00;;;;4982256;28;20498;-80
2022/01/30 05:35:47;;;;;;;12.13;2.63;;;7.80;1.00;8.20;68061.00;;;;5056728;28;20482;-80
2022/01/30 05:38:38;;;;;;;13.43;3.37;;;7.80;1.00;8.20;68069.00;;;;5045000;28;20471;-79
2022/01/30 05:41:36;;;;;;;18.53;2.80;;;7.80;1.00;8.20;68061.00;;;;5005786;28;20589;-80
2022/01/30 05:44:38;;;;;;;9.80;3.27;;;7.70;1.00;217.30;160176.00;;;;5062493;28;20491;-80
2022/01/30 05:47:32;;;;;;;17.87;3.93;;;7.70;1.00;8.10;101459.00;;;;5008582;28;20447;-81
2022/01/30 05:50:21;;;;;;;10.60;3.37;;;7.70;1.00;8.10;68054.00;;;;5055852;28;20513;-81
2022/01/30 05:53:01;;;;;;;13.10;3.90;;;7.70;1.00;8.10;68061.00;;;;5062662;28;20464;-80
2022/01/30 05:55:42;;;;;;;7.40;2.40;;;7.70;1.00;8.10;101460.00;;;;5070535;28;20469;-81
2022/01/30 05:58:11;;;;;;;11.43;3.70;;;7.70;1.00;8.10;68061.00;;;;5069019;28;20451;-80
2022/01/30 06:00:57;;;;;;;13.63;3.80;;;7.70;1.00;8.10;68048.00;;;;5065698;28;20479;-80
2022/01/30 06:03:26;;;;;;;10.97;2.90;;;7.60;1.00;8.10;101467.00;;;;5061361;28;20467;-81
2022/01/30 06:05:55;;;;;;;10.87;2.80;;;7.60;1.00;8.10;68061.00;;;;5061213;28;20503;-79
2022/01/30 06:08:40;;;;;;;13.73;2.63;;;7.70;1.00;8.10;101447.00;;;;5070238;28;20531;-80
2022/01/30 06:11:11;;;;;;;11.43;3.47;;;7.70;1.00;8.10;68051.00;;;;5068951;28;20458;-80
2022/01/30 06:13:42;;;;;;;13.27;3.40;;;7.60;1.00;8.10;68048.00;;;;5065454;28;20535;-81
2022/01/30 06:16:11;;;;;;;10.67;3.00;;;7.70;1.00;8.00;68042.00;;;;5058644;28;20460;-81
2022/01/30 06:18:43;;;;;;;10.50;2.80;;;7.70;1.00;8.10;68048.00;;;;5059007;28;20472;-80
2022/01/30 06:21:30;;;;;;;11.10;3.27;;;7.70;1.00;217.30;160160.00;;;;5062854;28;20538;-79
2022/01/30 06:24:21;;;;;;;14.23;4.10;;;7.70;1.00;8.10;101421.00;;;;5028750;28;20456;-80
2022/01/30 06:27:23;;;;;;;12.93;2.90;;;7.70;1.00;52.70;160139.00;;;;5030836;28;20874;-80
2022/01/30 06:30:21;;;;;;;10.43;3.03;;;7.70;1.00;8.00;101455.00;;;;5064452;28;20519;-78
2022/01/30 06:33:13;;;;;;;9.10;2.80;;;7.60;1.00;8.00;68037.00;;;;5055917;28;20456;-80
2022/01/30 06:36:01;;;;;;;9.97;2.97;;;7.60;1.00;8.10;101477.00;;;;5000496;28;20456;-80
2022/01/30 06:38:37;;;;;;;11.83;2.57;;;7.70;1.00;8.00;68033.00;;;;5048577;28;20462;-81
2022/01/30 06:41:14;;;;;;;12.03;3.10;;;7.70;1.00;8.10;68048.00;;;;5051179;28;20444;-79
2022/01/30 06:44:05;;;;;;;12.83;5.23;;;7.70;1.00;8.00;101326.00;;;;5048852;28;20547;-80
2022/01/30 06:47:02;;;;;;;13.00;3.77;;;7.70;1.00;7.90;101451.00;;;;5061590;28;20487;-78
2022/01/30 06:49:42;;;;;;;11.83;2.87;;;7.50;1.00;7.80;101456.00;;;;5064638;28;20463;-79
2022/01/30 06:52:27;;;;;;;16.47;4.80;;;7.50;1.00;7.80;101477.00;;;;5062595;28;20448;-80
2022/01/30 06:55:14;;;;;;;14.30;3.17;;;7.40;1.00;7.80;67977.00;;;;5047920;28;20455;-80
2022/01/30 06:58:13;;;;;;;10.47;2.73;;;7.20;1.00;7.70;101484.00;;;;5011165;28;20438;-79
2022/01/30 07:01:01;;;;;;;16.97;3.07;;;7.10;1.00;7.60;101499.00;;;;5046485;28;20450;-79
2022/01/30 07:04:05;;;;;;;10.50;2.17;;;7.00;1.00;7.60;101495.00;;;;5050802;28;20822;-79
2022/01/30 07:07:06;;;;;;;9.60;2.33;;;7.00;1.00;7.50;101523.00;;;;5050445;28;20975;-79
2022/01/30 07:09:35;;;;;;;9.60;2.80;;;7.10;1.00;217.30;159915.00;;;;5047546;28;20489;-80
2022/01/30 07:12:04;;;;;;;10.03;2.53;;;7.00;1.00;217.30;159925.00;;;;5047742;28;20492;-79
2022/01/30 07:14:32;;;;;;;8.40;2.73;;;7.10;1.00;7.50;101510.00;;;;5048239;28;20451;-81
2022/01/30 07:17:01;;;;;;;13.63;3.10;;;7.10;1.00;7.50;101523.00;;;;5043314;28;20460;-80
2022/01/30 07:19:30;;;;;;;9.30;2.50;;;7.00;1.00;7.40;101546.00;;;;5045299;28;20507;-80
2022/01/30 07:21:58;;;;;;;8.20;3.40;;;6.90;1.00;7.40;101526.00;;;;5061816;28;20448;-80
2022/01/30 07:24:26;;;;;;;15.97;4.37;;;7.00;1.00;7.50;67914.00;;;;5052050;28;20464;-79
2022/01/30 07:26:54;;;;;;;11.13;2.77;;;7.00;1.00;7.50;67916.00;;;;5053032;28;20463;-79
2022/01/30 07:29:23;;;;;;;8.27;3.03;;;7.00;1.00;7.50;67914.00;;;;5053145;28;20476;-80
2022/01/30 07:31:51;;;;;;;11.40;3.00;;;7.00;1.00;7.50;101541.00;;;;5057197;28;20464;-80
2022/01/30 07:34:22;;;;;;;7.00;2.13;;;7.00;1.00;7.50;101540.00;;;;5046975;28;20458;-80
2022/01/30 07:36:51;;;;;;;9.47;2.83;;;7.10;1.00;7.60;101530.00;;;;5049301;28;20991;-81
2022/01/30 07:39:19;;;;;;;10.47;2.57;;;7.10;1.00;7.80;67979.00;;;;5047769;28;20482;-80
2022/01/30 07:41:48;;;;;;;8.23;2.20;;;7.20;1.00;7.90;68002.00;;;;5050803;28;20463;-80
2022/01/30 07:44:17;;;;;;;10.90;2.60;;;7.40;1.00;7.90;68012.00;;;;5064171;28;20558;-80
2022/01/30 07:46:45;;;;;;;8.97;3.43;;;7.60;1.00;8.00;101548.00;;;;5049473;28;20494;-80
2022/01/30 07:49:14;;;;;;;9.07;2.90;;;7.50;1.00;8.00;101567.00;;;;5048617;28;21012;-80
2022/01/30 07:51:44;;;;;;;10.10;2.60;;;7.50;1.00;7.90;101541.00;;;;5049787;28;20787;-80
2022/01/30 07:54:12;;;;;;;11.03;2.80;;;7.50;1.00;7.90;101545.00;;;;5048588;28;20463;-81
2022/01/30 07:56:40;;;;;;;8.90;2.90;;;7.50;1.00;7.90;68002.00;;;;5047800;28;20797;-80
2022/01/30 07:59:10;;;;;;;10.43;3.60;;;7.40;1.00;7.90;101549.00;;;;5050331;28;20468;-80
2022/01/30 08:01:39;;;;;;;8.80;2.73;;;7.40;1.00;7.80;101542.00;;;;5050973;28;20456;-81
2022/01/30 08:04:08;;;;;;;10.13;2.77;;;7.40;1.00;217.30;160033.00;;;;5056550;28;20444;-81
2022/01/30 08:06:37;;;;;;;14.70;3.43;;;7.60;1.00;7.90;68008.00;;;;5056380;28;21441;-81
2022/01/30 08:09:07;;;;;;;9.17;2.70;;;7.40;1.00;7.90;68012.00;;;;5051865;28;20480;-80
2022/01/30 08:11:35;;;;;;;11.07;2.73;;;7.50;1.00;8.00;68019.00;;;;5053263;28;20506;-81
2022/01/30 08:14:03;;;;;;;5.10;1.40;;;7.50;1.00;7.90;68017.00;;;;5049950;28;20459;-80
2022/01/30 08:16:31;;;;;;;9.63;2.40;;;7.50;1.00;8.00;101536.00;;;;5050697;28;20459;-82
2022/01/30 08:19:00;;;;;;;15.07;4.10;;;7.50;1.00;217.30;160107.00;;;;5049851;28;20480;-80
2022/01/30 08:21:28;;;;;;;7.13;3.20;;;7.50;1.00;7.90;101532.00;;;;5048110;28;20460;-80
2022/01/30 08:23:56;;;;;;;9.30;2.90;;;7.50;1.00;8.00;101528.00;;;;5048459;28;20518;-80
2022/01/30 08:26:26;;;;;;;9.63;2.80;;;7.50;1.00;8.00;101528.00;;;;5046023;28;20475;-81
2022/01/30 08:28:54;;;;;;;9.20;2.40;;;7.50;1.00;8.10;68042.00;;;;5046848;28;20483;-78
2022/01/30 08:31:23;;;;;;;9.10;2.83;;;7.60;1.00;8.00;101509.00;;;;5052210;28;20455;-81
2022/01/30 08:33:52;;;;;;;10.03;2.90;;;7.60;1.00;7.90;101500.00;;;;5054505;28;20460;-81
2022/01/30 08:36:20;;;;;;;14.17;4.60;;;7.50;1.00;8.20;101493.00;;;;5047182;28;20463;-81
2022/01/30 08:38:48;;;;;;;13.63;3.00;;;7.70;1.00;8.30;68087.00;;;;5050468;28;20483;-82
2022/01/30 08:41:16;;;;;;;11.67;4.10;;;8.00;1.00;8.20;101493.00;;;;5044459;28;20467;-81
2022/01/30 08:43:46;;;;;;;8.43;3.77;;;7.80;1.00;8.10;68052.00;;;;5047468;28;20452;-80
2022/01/30 08:46:15;;;;;;;16.93;3.80;;;7.70;1.00;7.90;68002.00;;;;5048991;28;20487;-80
2022/01/30 08:48:43;;;;;;;12.03;3.30;;;7.50;1.00;7.80;101488.00;;;;5047944;28;20481;-80
2022/01/30 08:51:11;;;;;;;10.37;2.70;;;7.30;1.00;7.80;101491.00;;;;5053112;28;20467;-80
2022/01/30 08:53:41;;;;;;;9.37;3.10;;;7.30;1.00;7.80;101481.00;;;;5047695;28;20447;-80
2022/01/30 08:56:09;;;;;;;8.43;2.57;;;7.40;1.00;8.00;101478.00;;;;5045588;28;20458;-80
2022/01/30 08:58:37;;;;;;;9.60;2.67;;;7.50;1.00;8.10;101493.00;;;;5048361;28;20459;-80
2022/01/30 09:01:08;;;;;;;9.40;2.40;;;7.60;1.00;8.10;68042.00;;;;5050809;28;21165;-79
2022/01/30 09:03:37;;;;;;;18.07;3.60;;;7.60;1.00;8.20;68072.00;;;;5054031;28;20492;-81
2022/01/30 09:06:06;;;;;;;9.07;2.93;;;7.70;1.00;8.20;68075.00;;;;5051649;28;20741;-80
2022/01/30 09:08:34;;;;;;;10.53;2.43;;;7.80;1.00;8.10;101493.00;;;;5052971;28;20815;-80
2022/01/30 09:11:02;;;;;;;11.50;2.90;;;7.70;1.00;8.20;101502.00;;;;5050698;28;20458;-79
2022/01/30 09:13:31;;;;;;;10.20;2.80;;;7.80;1.00;8.20;101513.00;;;;5049361;28;20448;-79
2022/01/30 09:16:01;;;;;;;7.03;2.93;;;7.80;1.00;8.10;68056.00;;;;5050603;28;20455;-79
2022/01/30 09:18:31;;;;;;;9.60;2.80;;;7.80;1.00;8.30;68102.00;;;;5053228;28;20440;-81
2022/01/30 09:20:59;;;;;;;6.90;2.07;;;7.80;1.00;8.50;68138.00;;;;5051331;28;20471;-79
2022/01/30 09:23:28;;;;;;;8.30;3.00;;;8.10;1.00;52.70;160313.00;;;;5052121;28;20535;-81
2022/01/30 09:25:56;;;;;;;9.57;3.40;;;8.10;1.00;8.50;68152.00;;;;5054926;28;20575;-82
2022/01/30 09:28:24;;;;;;;9.93;2.53;;;8.20;1.00;8.50;68140.00;;;;5064898;28;20506;-79
2022/01/30 09:30:53;;;;;;;7.90;2.27;;;8.20;1.00;217.30;160297.00;;;;5050231;28;20464;-81
2022/01/30 09:33:21;;;;;;;8.67;2.20;;;8.10;1.00;8.40;68121.00;;;;5050860;28;20478;-80
2022/01/30 09:35:51;;;;;;;10.80;3.37;;;8.00;1.00;8.50;101527.00;;;;5051006;28;20456;-79
2022/01/30 09:38:19;;;;;;;10.40;3.50;;;8.10;1.00;8.50;68138.00;;;;5051831;28;20541;-79
2022/01/30 09:40:48;;;;;;;11.40;2.40;;;8.00;1.00;8.40;101552.00;;;;5051590;28;20482;-79
2022/01/30 09:43:17;;;;;;;14.90;3.63;;;8.00;1.00;8.60;101528.00;;;;5049961;28;20547;-79
2022/01/30 09:45:47;;;;;;;7.27;2.97;;;8.10;1.00;8.50;101539.00;;;;5049572;28;20475;-81
2022/01/30 09:48:18;;;;;;;6.67;2.73;;;8.10;1.00;8.30;68094.00;;;;5049054;28;20480;-82
2022/01/30 09:50:47;;;;;;;11.43;2.63;;;7.90;1.00;8.40;68107.00;;;;5066146;28;20480;-80
2022/01/30 09:53:19;;;;;;;9.47;3.00;;;7.90;1.00;8.30;68112.00;;;;5051296;28;20527;-82
2022/01/30 09:55:48;;;;;;;12.50;3.13;;;8.00;1.00;8.30;68112.00;;;;5063261;28;20536;-80
2022/01/30 09:58:17;;;;;;;10.80;3.80;;;7.90;1.00;8.20;101517.00;;;;5047223;28;20455;-82
2022/01/30 10:00:52;;;;;;;11.60;3.47;;;7.80;1.00;8.30;68087.00;;;;5046751;28;20451;-79
2022/01/30 10:03:22;;;;;;;11.00;2.93;;;7.90;1.00;8.30;101541.00;;;;5051075;28;20456;-78
2022/01/30 10:06:13;;;;;;;8.13;2.73;;;7.90;1.00;8.30;101542.00;;;;5051462;28;20459;-79
2022/01/30 10:08:48;;;;;;;12.40;4.20;;;7.90;1.00;8.20;68087.00;;;;5052122;28;20539;-81
2022/01/30 10:14:05;;;;;;;11.20;2.97;;;7.80;1.00;8.40;101569.00;;;;5051272;28;20483;-80
2022/01/30 10:16:37;;;;;;;11.30;3.10;;;8.00;1.00;8.40;101546.00;;;;5051562;28;21164;-80
2022/01/30 10:19:15;;;;;;;16.53;4.93;;;8.00;1.00;8.40;101557.00;;;;5052439;28;20475;-81
2022/01/30 10:21:44;;;;;;;16.33;2.93;;;7.90;1.00;8.50;68148.00;;;;5051776;28;20451;-80
2022/01/30 10:24:26;;;;;;;9.63;3.03;;;8.00;1.00;8.60;101549.00;;;;5052606;28;20573;-80
2022/01/30 10:26:59;;;;;;;11.70;2.83;;;8.20;1.00;8.50;101565.00;;;;5052950;28;20462;-82
2022/01/30 10:29:30;;;;;;;12.93;4.13;;;8.10;1.00;8.70;101558.00;;;;5058381;28;20472;-81
2022/01/30 10:32:06;;;;;;;6.67;2.20;;;8.20;1.00;8.70;101570.00;;;;5055439;28;20448;-79
2022/01/30 10:34:37;;;;;;;12.93;3.07;;;8.40;1.00;8.70;68193.00;;;;5053657;28;20451;-79
2022/01/30 10:37:14;;;;;;;15.90;3.07;;;8.30;1.00;8.80;68215.00;;;;5054292;28;20542;-83
2022/01/30 10:40:11;;;;;;;12.10;3.93;;;8.40;1.00;8.90;101592.00;;;;5047550;28;20491;-78
2022/01/30 10:42:45;;;;;;;10.47;3.17;;;8.50;1.00;9.10;68272.00;;;;5047899;28;20454;-81
2022/01/30 10:45:16;;;;;;;15.40;3.10;;;8.70;1.00;9.20;101594.00;;;;5047300;28;20471;-80
2022/01/30 10:47:45;;;;;;;10.93;2.50;;;8.60;1.00;9.20;101602.00;;;;5045155;28;20475;-79
2022/01/30 10:50:17;;;;;;;11.43;2.40;;;8.90;1.00;9.30;101615.00;;;;5050823;28;20860;-81
2022/01/30 10:52:59;;;;;;;9.00;3.70;;;9.00;1.00;9.30;101613.00;;;;5056296;28;20566;-81
2022/01/30 10:55:43;;;;;;;13.50;3.13;;;9.00;1.00;9.40;101624.00;;;;5058039;28;20462;-82
2022/01/30 10:58:13;;;;;;;11.10;2.70;;;9.00;1.00;217.30;160763.00;;;;5057797;28;20453;-79
2022/01/30 11:00:49;;;;;;;14.67;3.87;;;9.00;1.00;9.60;101619.00;;;;5057373;28;20467;-80
2022/01/30 11:03:40;;;;;;;9.63;2.90;;;9.20;1.00;9.50;101626.00;;;;5056544;28;20440;-80
2022/01/30 11:06:11;;;;;;;12.90;2.70;;;9.20;1.00;9.40;101616.00;;;;5069566;28;20924;-80
2022/01/30 11:08:43;;;;;;;18.00;3.70;;;9.10;1.00;9.30;101631.00;;;;5064216;28;20489;-79
2022/01/30 11:11:26;;;;;;;10.30;3.30;;;8.90;1.00;9.30;68318.00;;;;5063974;28;20554;-78
2022/01/30 11:14:03;;;;;;;11.80;2.70;;;8.90;1.00;9.30;101642.00;;;;5057524;28;20460;-80
2022/01/30 11:19:22;;;;;;;12.90;3.57;;;9.20;1.00;9.10;101622.00;;;;5052983;28;20466;-81
2022/01/30 11:21:52;;;;;;;15.30;3.40;;;8.70;1.00;9.20;101636.00;;;;5054975;28;20455;-80
2022/01/30 11:24:25;;;;;;;11.80;5.40;;;8.80;1.00;9.30;101636.00;;;;5048642;28;20462;-80
2022/01/30 11:26:55;;;;;;;9.80;4.20;;;8.90;1.00;9.30;101639.00;;;;5047463;28;20514;-79
2022/01/30 11:29:23;;;;;;;9.30;2.97;;;8.90;1.00;9.30;101631.00;;;;5051040;28;20491;-81
2022/01/30 11:31:52;;;;;;;15.53;3.70;;;8.90;1.00;9.30;101648.00;;;;5056111;28;20463;-79
2022/01/30 11:34:21;;;;;;;12.30;3.03;;;8.90;1.00;9.30;101648.00;;;;5051252;28;20460;-80
2022/01/30 11:36:49;;;;;;;10.57;4.63;;;9.00;1.00;9.30;101612.00;;;;5050505;28;20462;-78
2022/01/30 11:39:21;;;;;;;9.40;2.67;;;9.00;1.00;9.30;101652.00;;;;5054243;28;20472;-79
2022/01/30 11:42:18;;;;;;;9.57;2.80;;;9.00;1.00;9.20;101639.00;;;;5048985;28;20468;-80
2022/01/30 11:44:50;;;;;;;17.80;4.07;;;8.90;1.00;9.20;101631.00;;;;5053346;28;20490;-82
2022/01/30 11:47:52;;;;;;;13.37;3.50;;;8.80;1.00;9.40;101643.00;;;;5056430;28;20468;-82
2022/01/30 11:50:28;;;;;;;13.53;3.23;;;9.00;1.00;9.50;101626.00;;;;5060584;28;20458;-85
2022/01/30 11:53:01;;;;;;;17.70;4.00;;;9.10;1.00;9.40;101628.00;;;;5063492;28;20456;-81
2022/01/30 11:55:56;;;;;;;12.10;3.70;;;9.00;1.00;9.30;101629.00;;;;5055473;28;20444;-79
2022/01/30 11:58:54;;;;;;;19.67;3.77;;;9.00;1.00;9.40;68344.00;;;;5067485;28;20464;-81
2022/01/30 12:01:38;;;;;;;15.80;3.20;;;9.00;1.00;9.50;101630.00;;;;5052941;28;20464;-81
2022/01/30 12:04:17;;;;;;;13.70;3.77;;;9.00;1.00;9.40;101641.00;;;;5053445;28;20444;-81
2022/01/30 12:06:50;;;;;;;13.30;3.87;;;9.00;1.00;9.30;101636.00;;;;5058265;28;20447;-82
2022/01/30 12:09:30;;;;;;;13.70;4.33;;;8.90;1.00;9.20;101639.00;;;;5050230;28;20488;-79
2022/01/30 12:12:05;;;;;;;6.30;2.10;;;8.80;1.00;9.00;101652.00;;;;5054268;28;20534;-80
2022/01/30 12:14:59;;;;;;;8.93;3.20;;;8.60;1.00;9.00;101656.00;;;;5051375;28;20574;-80
2022/01/30 12:17:58;;;;;;;17.80;3.47;;;8.60;1.00;8.90;101644.00;;;;5050731;28;20448;-79
2022/01/30 12:20:32;;;;;;;15.47;3.73;;;8.60;1.00;9.00;101638.00;;;;5050886;28;20496;-79